Time;durP1;ratioP1;P1;durP2;ratioP2;P2;SDS_P1;SDS_P2;PMS_P1;PMS_P2;Temp;Humidity;BMP_temperature;BMP_pressure;BME280_temperature;BME280_humidity;BME280_pressure;Samples;Min_cycle;Max_cycle;Signal;HPM_P1;HPM_P2
2022/05/24 00:01:24;;;;;;;15.57;7.70;;;11.60;95.70;;;;;;4816451;29;20046;-74
2022/05/24 00:03:49;;;;;;;12.30;7.80;;;11.50;95.80;;;;;;4823449;29;20388;-74
2022/05/24 00:06:16;;;;;;;11.97;7.67;;;11.50;95.80;;;;;;4799435;29;20057;-74
2022/05/24 00:08:42;;;;;;;11.00;7.43;;;11.40;95.60;;;;;;4792628;29;20142;-74
2022/05/24 00:11:08;;;;;;;11.85;7.45;;;11.30;95.60;;;;;;4845483;29;20038;-74
2022/05/24 00:13:33;;;;;;;13.47;7.73;;;11.30;95.70;;;;;;4829263;29;20473;-74
2022/05/24 00:15:59;;;;;;;18.90;8.93;;;11.20;95.80;;;;;;4825528;29;20043;-74
2022/05/24 00:18:28;;;;;;;13.37;8.40;;;11.10;95.80;;;;;;4830783;29;20391;-74
2022/05/24 00:20:57;;;;;;;16.52;9.07;;;11.10;95.90;;;;;;4803674;29;20055;-74
2022/05/24 00:23:25;;;;;;;15.80;9.52;;;11.00;96.10;;;;;;4831212;29;20042;-74
2022/05/24 00:25:54;;;;;;;15.52;9.60;;;11.00;96.10;;;;;;4841814;29;20679;-74
2022/05/24 00:28:22;;;;;;;15.55;9.55;;;11.00;96.20;;;;;;4808895;29;20524;-74
2022/05/24 00:30:49;;;;;;;14.55;9.35;;;11.00;96.20;;;;;;4835873;29;20046;-74
2022/05/24 00:33:15;;;;;;;14.50;9.65;;;10.90;96.20;;;;;;4808452;29;20480;-74
2022/05/24 00:35:42;;;;;;;20.23;11.50;;;10.90;96.50;;;;;;4827403;29;20050;-74
2022/05/24 00:38:11;;;;;;;18.27;11.55;;;11.00;96.50;;;;;;4803918;29;20043;-74
2022/05/24 00:40:46;;;;;;;23.50;12.45;;;11.00;96.70;;;;;;4799673;29;20042;-74
2022/05/24 00:43:30;;;;;;;21.33;11.82;;;11.10;97.00;;;;;;4847734;29;20419;-74
2022/05/24 00:46:14;;;;;;;19.08;12.05;;;11.30;97.00;;;;;;4852872;29;20110;-74
2022/05/24 00:49:19;;;;;;;17.10;11.20;;;11.30;97.10;;;;;;4823976;29;20067;-74
2022/05/24 00:51:55;;;;;;;20.23;11.98;;;11.40;97.00;;;;;;4816986;29;20419;-74
2022/05/24 00:54:22;;;;;;;18.17;11.32;;;11.50;97.10;;;;;;4827010;29;20054;-74
2022/05/24 00:56:58;;;;;;;19.88;12.75;;;11.50;97.10;;;;;;4822756;29;20044;-74
2022/05/24 00:59:45;;;;;;;18.67;12.30;;;11.60;97.30;;;;;;4810586;29;20046;-75
2022/05/24 01:02:11;;;;;;;20.90;12.50;;;11.70;97.40;;;;;;4843732;29;20046;-74
2022/05/24 01:04:40;;;;;;;22.55;13.10;;;11.70;97.30;;;;;;4806245;29;20053;-74
2022/05/24 01:07:06;;;;;;;19.77;13.00;;;11.70;97.20;;;;;;4809990;29;20427;-74
2022/05/24 01:09:40;;;;;;;18.77;11.47;;;11.80;97.40;;;;;;4804864;29;20050;-74
2022/05/24 01:12:13;;;;;;;18.02;10.75;;;11.80;97.40;;;;;;4819268;29;20050;-74
2022/05/24 01:14:39;;;;;;;12.60;10.20;;;11.90;97.30;;;;;;4820016;29;20074;-74
2022/05/24 01:17:05;;;;;;;14.97;10.70;;;11.90;97.20;;;;;;4852646;29;20403;-74
2022/05/24 01:19:34;;;;;;;18.48;10.30;;;11.90;97.30;;;;;;4816766;29;20296;-74
2022/05/24 01:22:11;;;;;;;16.87;11.53;;;11.90;97.20;;;;;;4821437;29;20047;-73
2022/05/24 01:24:52;;;;;;;23.57;12.40;;;11.90;97.20;;;;;;4812313;29;20306;-74
2022/05/24 01:27:18;;;;;;;21.05;12.48;;;11.90;97.30;;;;;;4847543;29;20808;-73
2022/05/24 01:29:44;;;;;;;18.37;12.33;;;11.90;97.20;;;;;;4823504;29;20064;-74
2022/05/24 01:37:38;;;;;;;28.00;16.70;;;12.00;97.30;;;;;;4822112;29;20359;-74
2022/05/24 01:40:05;;;;;;;26.30;16.47;;;12.00;97.20;;;;;;4819307;29;20050;-74
2022/05/24 01:42:31;;;;;;;30.92;19.45;;;12.10;97.30;;;;;;4813495;29;20042;-74
2022/05/24 01:45:20;;;;;;;31.45;21.23;;;12.10;97.20;;;;;;4802389;29;20046;-74
2022/05/24 01:47:50;;;;;;;39.80;24.33;;;12.10;97.50;;;;;;4805729;29;20045;-74
2022/05/24 01:50:19;;;;;;;39.07;23.23;;;12.10;97.30;;;;;;4816274;29;20403;-74
2022/05/24 01:52:50;;;;;;;47.30;26.40;;;12.10;97.40;;;;;;4808029;29;20804;-74
2022/05/24 01:55:25;;;;;;;44.13;25.97;;;12.20;97.30;;;;;;4854193;29;20351;-74
2022/05/24 01:57:55;;;;;;;50.45;27.27;;;12.20;97.30;;;;;;4828017;29;20755;-74
2022/05/24 02:00:21;;;;;;;46.87;28.33;;;12.20;97.40;;;;;;4823042;29;20042;-74
2022/05/24 02:02:48;;;;;;;45.93;26.77;;;12.20;97.30;;;;;;4839327;29;20352;-75
2022/05/24 02:05:27;;;;;;;45.63;27.43;;;12.30;97.40;;;;;;4836255;29;20085;-75
2022/05/24 02:07:53;;;;;;;43.87;27.10;;;12.30;97.30;;;;;;4827131;29;20800;-74
2022/05/24 02:10:19;;;;;;;50.50;28.30;;;12.30;97.30;;;;;;4836466;29;20335;-74
2022/05/24 02:12:49;;;;;;;41.20;25.30;;;12.30;97.20;;;;;;4810471;29;20543;-74
2022/05/24 02:15:19;;;;;;;40.97;23.63;;;12.30;97.20;;;;;;4831547;29;20058;-74
2022/05/24 02:18:07;;;;;;;37.53;22.67;;;12.40;97.20;;;;;;4794558;29;20307;-74
2022/05/24 02:20:38;;;;;;;32.33;22.17;;;12.40;97.10;;;;;;4838814;29;20322;-74
2022/05/24 02:23:05;;;;;;;30.57;21.17;;;12.40;97.10;;;;;;4845692;29;20297;-74
2022/05/24 02:25:42;;;;;;;36.27;23.13;;;12.40;97.20;;;;;;4820662;29;20865;-74
2022/05/24 02:28:10;;;;;;;31.97;21.03;;;12.40;97.20;;;;;;4827308;29;20312;-74
2022/05/24 02:30:44;;;;;;;30.13;20.97;;;12.40;97.10;;;;;;4801807;29;20299;-74
2022/05/24 02:33:10;;;;;;;30.17;20.92;;;12.40;97.00;;;;;;4805895;29;20329;-74
2022/05/24 02:35:36;;;;;;;39.67;23.77;;;12.40;97.00;;;;;;4806979;29;20070;-74
2022/05/24 02:38:02;;;;;;;36.23;23.17;;;12.50;97.00;;;;;;4805162;29;20053;-74
2022/05/24 02:43:11;;;;;;;34.73;21.77;;;12.50;96.80;;;;;;4844750;29;20137;-74
2022/05/24 02:45:37;;;;;;;31.73;21.73;;;12.50;96.60;;;;;;4809627;29;20394;-74
2022/05/24 02:48:04;;;;;;;35.73;21.30;;;12.50;96.50;;;;;;4817025;29;20053;-74
2022/05/24 02:50:30;;;;;;;32.73;21.20;;;12.50;96.20;;;;;;4814177;29;20049;-74
2022/05/24 02:52:56;;;;;;;36.63;22.47;;;12.50;96.10;;;;;;4821189;29;20392;-74
2022/05/24 02:55:22;;;;;;;36.23;24.03;;;12.50;95.60;;;;;;4824102;29;20303;-74
2022/05/24 02:57:48;;;;;;;41.93;24.80;;;12.50;95.70;;;;;;4808010;29;20302;-74
2022/05/24 03:00:18;;;;;;;33.90;24.43;;;12.50;95.60;;;;;;4835398;29;20386;-73
2022/05/24 03:02:43;;;;;;;30.90;23.07;;;12.50;95.50;;;;;;4816363;29;20046;-74
2022/05/24 03:05:12;;;;;;;33.60;23.43;;;12.50;95.30;;;;;;4807634;29;20359;-74
2022/05/24 03:10:23;;;;;;;31.92;23.35;;;12.40;95.60;;;;;;4815490;29;20319;-74
2022/05/24 03:15:33;;;;;;;27.50;18.75;;;12.30;95.60;;;;;;4844626;29;20688;-73
2022/05/24 03:18:00;;;;;;;29.57;18.83;;;12.30;95.80;;;;;;4832243;29;20054;-73
2022/05/24 03:20:26;;;;;;;25.40;18.83;;;12.30;95.80;;;;;;4817351;29;20405;-73
2022/05/24 03:22:52;;;;;;;23.17;17.00;;;12.20;95.80;;;;;;4817571;29;20310;-74
2022/05/24 03:25:18;;;;;;;23.93;15.87;;;12.20;95.80;;;;;;4803822;29;20424;-74
2022/05/24 03:27:46;;;;;;;23.60;16.37;;;12.20;95.90;;;;;;4827289;29;20294;-74
2022/05/24 03:30:12;;;;;;;22.43;13.97;;;12.20;95.70;;;;;;4823742;29;20050;-73
2022/05/24 03:32:41;;;;;;;18.57;12.43;;;12.20;95.60;;;;;;4809566;29;20306;-73
2022/05/24 03:35:08;;;;;;;17.17;11.30;;;12.10;95.60;;;;;;4825615;29;20361;-73
2022/05/24 03:37:35;;;;;;;16.00;11.23;;;12.10;95.40;;;;;;4831582;29;20303;-73
2022/05/24 03:40:01;;;;;;;17.00;11.43;;;12.10;95.30;;;;;;4808979;29;20839;-74
2022/05/24 03:42:26;;;;;;;17.17;11.83;;;12.10;95.40;;;;;;4811500;29;20300;-74
2022/05/24 03:44:52;;;;;;;22.30;11.17;;;12.00;95.30;;;;;;4819201;29;20754;-73
2022/05/24 03:47:18;;;;;;;19.37;10.47;;;12.00;95.00;;;;;;4811023;29;20547;-73
2022/05/24 03:49:43;;;;;;;16.67;11.00;;;11.90;95.00;;;;;;4796759;29;20551;-74
2022/05/24 03:52:09;;;;;;;20.17;11.70;;;11.80;95.00;;;;;;4826229;29;20420;-73
2022/05/24 03:54:35;;;;;;;18.80;11.30;;;11.80;95.10;;;;;;4801080;29;20682;-74
2022/05/24 03:59:45;;;;;;;19.07;10.93;;;11.70;95.40;;;;;;4827766;29;20046;-74
2022/05/24 04:02:11;;;;;;;17.13;10.13;;;11.60;95.30;;;;;;4816486;29;20288;-74
2022/05/24 04:04:37;;;;;;;17.10;10.37;;;11.60;95.40;;;;;;4821980;29;20046;-74
2022/05/24 04:07:03;;;;;;;20.93;11.00;;;11.50;95.50;;;;;;4814823;29;20311;-73
2022/05/24 04:09:32;;;;;;;19.43;10.50;;;11.50;95.50;;;;;;4808114;29;20327;-73
2022/05/24 04:11:57;;;;;;;21.87;11.27;;;11.50;95.60;;;;;;4840445;29;20068;-74
2022/05/24 04:14:23;;;;;;;19.63;11.50;;;11.40;95.70;;;;;;4853144;29;20307;-73
2022/05/24 04:16:49;;;;;;;21.13;11.57;;;11.40;95.80;;;;;;4832902;29;20466;-74
2022/05/24 04:19:14;;;;;;;19.67;12.37;;;11.40;95.80;;;;;;4802571;29;20073;-74
2022/05/24 04:21:40;;;;;;;22.67;14.03;;;11.40;96.00;;;;;;4830386;29;20493;-73
2022/05/24 04:24:06;;;;;;;21.10;13.57;;;11.40;96.10;;;;;;4798460;29;20057;-73
2022/05/24 04:26:32;;;;;;;21.37;13.10;;;11.40;96.00;;;;;;4819982;29;20535;-73
2022/05/24 04:28:58;;;;;;;21.93;14.00;;;11.40;96.10;;;;;;4848422;29;20355;-73
2022/05/24 04:31:24;;;;;;;22.00;13.60;;;11.40;96.20;;;;;;4832183;29;20073;-74
2022/05/24 04:33:50;;;;;;;23.20;14.23;;;11.50;96.40;;;;;;4803094;29;20039;-74
2022/05/24 04:36:15;;;;;;;23.20;15.10;;;11.50;96.40;;;;;;4808561;29;20675;-74
2022/05/24 04:38:41;;;;;;;25.43;15.57;;;11.60;96.40;;;;;;4822992;29;20094;-74
2022/05/24 04:43:52;;;;;;;27.47;15.90;;;11.70;96.60;;;;;;4835271;29;20295;-74
2022/05/24 04:46:18;;;;;;;24.80;15.53;;;11.80;96.60;;;;;;4824183;29;20305;-74
2022/05/24 04:48:43;;;;;;;26.07;16.17;;;11.80;96.70;;;;;;4812840;29;20408;-74
2022/05/24 04:51:09;;;;;;;27.93;17.90;;;11.90;96.50;;;;;;4842853;29;20056;-74
2022/05/24 04:53:36;;;;;;;22.33;16.47;;;12.00;96.60;;;;;;4815202;29;20048;-74
2022/05/24 04:56:01;;;;;;;27.20;17.27;;;12.00;96.70;;;;;;4807696;29;20119;-74
2022/05/24 04:58:27;;;;;;;28.40;18.10;;;12.00;96.50;;;;;;4810966;29;20295;-73
2022/05/24 05:00:53;;;;;;;27.50;17.80;;;12.10;96.30;;;;;;4835981;29;20053;-74
2022/05/24 05:03:20;;;;;;;27.30;15.80;;;12.10;96.30;;;;;;4851312;29;20038;-73
2022/05/24 05:05:47;;;;;;;25.80;17.10;;;12.10;96.20;;;;;;4803371;29;20050;-74
2022/05/24 05:08:13;;;;;;;26.53;17.17;;;12.20;96.30;;;;;;4821831;29;20295;-74
2022/05/24 05:10:39;;;;;;;29.63;18.13;;;12.20;96.30;;;;;;4811713;29;20312;-73
2022/05/24 05:13:06;;;;;;;29.43;16.93;;;12.30;96.20;;;;;;4826446;29;20357;-74
2022/05/24 05:15:34;;;;;;;25.77;17.30;;;12.30;96.30;;;;;;4825883;29;20544;-74
2022/05/24 05:18:04;;;;;;;29.30;17.73;;;12.40;96.10;;;;;;4855270;29;20611;-74
2022/05/24 05:20:38;;;;;;;26.63;17.27;;;12.40;96.10;;;;;;4800679;29;20910;-74
2022/05/24 05:23:14;;;;;;;29.08;16.85;;;12.40;96.10;;;;;;4817177;29;20306;-74
2022/05/24 05:25:42;;;;;;;29.87;14.50;;;12.40;96.20;;;;;;4808076;29;20119;-74
2022/05/24 05:28:08;;;;;;;35.97;15.57;;;12.50;96.40;;;;;;4809946;29;20822;-74
2022/05/24 05:33:18;;;;;;;33.85;15.57;;;12.50;96.40;;;;;;4846541;29;20299;-73
2022/05/24 05:35:46;;;;;;;35.80;15.77;;;12.60;96.40;;;;;;4804264;29;20061;-73
2022/05/24 05:38:13;;;;;;;32.40;14.97;;;12.60;96.50;;;;;;4822966;29;20500;-74
2022/05/24 05:40:39;;;;;;;35.03;14.50;;;12.60;96.40;;;;;;4820087;29;20287;-73
2022/05/24 05:43:05;;;;;;;40.70;15.57;;;12.70;96.40;;;;;;4813348;29;20287;-74
2022/05/24 05:45:31;;;;;;;34.77;15.80;;;12.70;96.50;;;;;;4812370;29;21167;-74
2022/05/24 05:47:57;;;;;;;27.27;14.13;;;12.70;96.60;;;;;;4812337;29;20327;-74
2022/05/24 05:50:22;;;;;;;30.23;14.53;;;12.70;96.60;;;;;;4811936;29;20058;-74
2022/05/24 05:52:50;;;;;;;17.67;8.47;;;12.80;96.70;;;;;;4807231;29;20133;-74
2022/05/24 05:55:16;;;;;;;15.23;6.93;;;12.80;96.80;;;;;;4821477;29;20077;-74
2022/05/24 05:57:42;;;;;;;12.90;5.93;;;12.80;96.40;;;;;;4837881;29;20293;-74
2022/05/24 06:00:09;;;;;;;15.03;6.20;;;12.70;95.90;;;;;;4834330;29;20657;-74
2022/05/24 06:02:36;;;;;;;16.40;7.23;;;12.80;95.90;;;;;;4807376;29;20132;-74
2022/05/24 06:05:02;;;;;;;10.90;5.50;;;12.90;96.00;;;;;;4825940;29;21107;-74
2022/05/24 06:07:27;;;;;;;11.87;5.97;;;13.00;95.80;;;;;;4813158;29;20298;-74
2022/05/24 06:09:53;;;;;;;12.87;5.90;;;13.10;95.30;;;;;;4811738;29;20307;-74
2022/05/24 06:12:19;;;;;;;11.23;5.60;;;13.10;95.40;;;;;;4812854;29;20050;-74
2022/05/24 06:14:45;;;;;;;9.50;5.77;;;13.20;95.00;;;;;;4811598;29;20054;-74
2022/05/24 06:17:10;;;;;;;11.83;5.73;;;13.20;95.00;;;;;;4811362;29;20052;-75
2022/05/24 06:19:37;;;;;;;9.77;5.47;;;13.10;94.00;;;;;;4812336;29;20411;-74
2022/05/24 06:22:03;;;;;;;12.70;5.20;;;13.10;93.80;;;;;;4806665;29;20141;-74
2022/05/24 06:24:29;;;;;;;12.57;5.37;;;13.10;94.00;;;;;;4821105;29;20359;-74
2022/05/24 06:26:56;;;;;;;13.13;5.53;;;13.00;94.20;;;;;;4829652;29;20382;-74
2022/05/24 06:29:23;;;;;;;9.03;6.10;;;13.00;94.00;;;;;;4811417;29;20346;-74
2022/05/24 06:31:49;;;;;;;16.03;6.10;;;13.00;94.10;;;;;;4805932;29;20298;-74
2022/05/24 06:34:14;;;;;;;9.47;6.20;;;13.00;94.30;;;;;;4827972;29;20315;-74
2022/05/24 06:36:40;;;;;;;11.20;5.90;;;12.90;94.40;;;;;;4813447;29;20491;-74
2022/05/24 06:39:06;;;;;;;12.07;6.23;;;12.90;94.40;;;;;;4828917;29;20041;-75
2022/05/24 06:41:32;;;;;;;11.80;6.83;;;12.80;94.30;;;;;;4806708;29;20050;-75
2022/05/24 06:43:57;;;;;;;19.50;8.83;;;12.80;93.20;;;;;;4813324;29;20378;-74
2022/05/24 06:46:23;;;;;;;14.63;8.33;;;12.80;92.80;;;;;;4815420;29;20464;-75
2022/05/24 06:48:50;;;;;;;15.40;9.17;;;12.90;92.70;;;;;;4859084;29;20456;-75
2022/05/24 06:51:21;;;;;;;13.40;8.43;;;13.00;92.50;;;;;;4830220;29;20113;-75
2022/05/24 06:53:49;;;;;;;14.03;8.70;;;13.10;91.70;;;;;;4852797;29;20347;-75
2022/05/24 06:56:15;;;;;;;13.53;8.23;;;13.00;90.00;;;;;;4815785;29;20290;-75
2022/05/24 06:58:41;;;;;;;12.03;7.20;;;13.00;90.00;;;;;;4830166;29;20382;-75
2022/05/24 07:03:54;;;;;;;13.87;8.37;;;13.00;89.90;;;;;;4856281;29;20295;-75
2022/05/24 07:06:20;;;;;;;13.47;7.63;;;13.00;89.70;;;;;;4813944;29;20841;-75
2022/05/24 07:08:48;;;;;;;11.30;7.50;;;13.00;90.00;;;;;;4831605;29;20037;-74
2022/05/24 07:11:17;;;;;;;13.13;8.17;;;13.00;89.20;;;;;;4858629;29;20057;-74
2022/05/24 07:13:42;;;;;;;12.33;7.43;;;13.00;88.90;;;;;;4808299;29;20279;-75
2022/05/24 07:16:09;;;;;;;12.27;7.50;;;13.00;89.40;;;;;;4824246;29;20310;-76
2022/05/24 07:18:36;;;;;;;13.47;7.97;;;13.00;88.60;;;;;;4816761;29;20475;-75
2022/05/24 07:21:02;;;;;;;12.07;7.77;;;13.10;88.90;;;;;;4828199;29;20793;-74
2022/05/24 07:23:28;;;;;;;11.47;7.70;;;13.20;89.10;;;;;;4816969;29;20309;-75
2022/05/24 07:26:05;;;;;;;8.23;6.90;;;13.30;89.50;;;;;;4846260;29;20291;-74
2022/05/24 07:28:32;;;;;;;13.10;7.20;;;13.30;88.00;;;;;;4817449;29;20146;-74
2022/05/24 07:30:57;;;;;;;15.60;7.30;;;13.30;88.00;;;;;;4856898;29;20740;-74
2022/05/24 07:33:23;;;;;;;11.73;8.13;;;13.40;87.30;;;;;;4859197;29;20385;-75
2022/05/24 07:35:49;;;;;;;14.33;7.93;;;13.40;87.70;;;;;;4811349;29;20503;-75
2022/05/24 07:38:14;;;;;;;11.63;7.13;;;13.40;88.10;;;;;;4807859;29;20434;-74
2022/05/24 07:46:13;;;;;;;9.65;6.85;;;13.40;86.90;;;;;;4844460;29;20451;-75
2022/05/24 07:48:39;;;;;;;11.00;6.60;;;13.50;87.30;;;;;;4842652;29;20055;-74
2022/05/24 07:51:06;;;;;;;11.40;6.80;;;13.60;86.70;;;;;;4827198;29;20291;-75
2022/05/24 07:53:32;;;;;;;9.60;5.40;;;13.70;86.80;;;;;;4841753;29;20292;-74
2022/05/24 07:55:58;;;;;;;10.73;5.87;;;13.80;86.00;;;;;;4807992;29;20323;-74
2022/05/24 07:58:24;;;;;;;11.23;6.27;;;13.80;86.10;;;;;;4820988;29;20737;-74
2022/05/24 08:00:51;;;;;;;10.63;5.37;;;13.80;85.30;;;;;;4820015;29;20291;-74
2022/05/24 08:03:17;;;;;;;10.70;5.63;;;13.60;85.10;;;;;;4817679;29;20941;-74
2022/05/24 08:05:42;;;;;;;11.27;6.50;;;13.50;85.90;;;;;;4815247;29;20319;-74
2022/05/24 08:08:09;;;;;;;8.17;5.50;;;13.40;86.10;;;;;;4801370;29;20086;-74
2022/05/24 08:10:37;;;;;;;11.13;6.37;;;13.40;87.50;;;;;;4850027;29;20822;-75
2022/05/24 08:13:06;;;;;;;8.90;5.87;;;13.30;86.90;;;;;;4837713;29;20845;-75
2022/05/24 08:15:32;;;;;;;8.67;5.77;;;13.20;87.00;;;;;;4823185;29;20316;-75
2022/05/24 08:17:58;;;;;;;10.10;6.17;;;13.10;87.40;;;;;;4811484;29;20298;-75
2022/05/24 08:20:24;;;;;;;12.40;6.50;;;13.00;87.10;;;;;;4815538;29;20286;-74
2022/05/24 08:22:50;;;;;;;11.23;7.00;;;12.90;87.50;;;;;;4826370;29;20511;-75
2022/05/24 08:25:16;;;;;;;12.13;6.70;;;12.90;88.30;;;;;;4831286;29;20452;-75
2022/05/24 08:27:42;;;;;;;19.30;5.60;;;12.80;88.90;;;;;;4811551;29;20051;-75
2022/05/24 08:30:11;;;;;;;4.93;2.70;;;12.70;88.80;;;;;;4813317;29;20307;-74
2022/05/24 08:32:37;;;;;;;9.13;3.33;;;12.30;88.50;;;;;;4828421;29;20302;-74
2022/05/24 08:35:04;;;;;;;5.30;3.27;;;12.10;88.60;;;;;;4815735;29;20673;-73
2022/05/24 08:37:30;;;;;;;6.83;3.13;;;11.90;88.90;;;;;;4823449;29;20358;-74
2022/05/24 08:39:58;;;;;;;10.53;4.40;;;11.80;89.60;;;;;;4828155;29;20374;-74
2022/05/24 08:42:31;;;;;;;7.23;4.83;;;11.90;90.40;;;;;;4804499;29;20287;-74
2022/05/24 08:50:45;;;;;;;9.70;5.57;;;12.10;91.80;;;;;;4854356;29;20283;-74
2022/05/24 08:53:16;;;;;;;8.93;5.83;;;12.20;91.70;;;;;;4809117;29;20287;-74
2022/05/24 08:55:43;;;;;;;13.97;7.33;;;12.30;92.10;;;;;;4822559;29;20325;-74
2022/05/24 08:58:27;;;;;;;8.73;5.50;;;12.60;92.50;;;;;;4809441;29;20292;-74
2022/05/24 09:00:52;;;;;;;6.73;4.80;;;12.80;92.50;;;;;;4814522;29;20298;-74
2022/05/24 09:03:24;;;;;;;7.00;5.17;;;13.10;92.60;;;;;;4808987;29;20695;-74
2022/05/24 09:06:00;;;;;;;9.07;4.87;;;13.30;92.70;;;;;;4821403;29;20311;-74
2022/05/24 09:08:29;;;;;;;6.50;4.33;;;13.50;92.50;;;;;;4823707;29;20505;-74
2022/05/24 09:11:34;;;;;;;6.30;3.80;;;13.80;92.30;;;;;;4823068;29;20290;-75
2022/05/24 09:14:17;;;;;;;7.55;4.70;;;14.10;91.80;;;;;;4844189;29;20421;-74
2022/05/24 09:17:17;;;;;;;6.23;3.70;;;14.30;89.60;;;;;;4827914;29;20052;-74
2022/05/24 09:19:43;;;;;;;6.03;3.53;;;14.40;87.00;;;;;;4857807;29;20298;-75
2022/05/24 09:22:11;;;;;;;8.53;4.53;;;14.30;83.70;;;;;;4816322;29;20303;-75
2022/05/24 09:24:50;;;;;;;7.60;4.37;;;14.40;84.70;;;;;;4808602;29;20326;-75
2022/05/24 09:27:23;;;;;;;6.93;4.83;;;14.60;85.70;;;;;;4814787;29;20295;-75
2022/05/24 09:29:52;;;;;;;6.37;3.97;;;15.00;87.20;;;;;;4809387;29;20306;-75
2022/05/24 09:32:18;;;;;;;7.77;4.17;;;15.30;85.50;;;;;;4827881;29;20336;-76
2022/05/24 09:34:44;;;;;;;6.73;3.33;;;15.40;80.90;;;;;;4844956;29;20839;-75
2022/05/24 09:37:26;;;;;;;6.60;3.43;;;15.10;79.10;;;;;;4811059;29;20050;-75
2022/05/24 09:40:17;;;;;;;6.77;2.70;;;15.10;81.70;;;;;;4808965;29;20088;-76
2022/05/24 09:42:43;;;;;;;6.90;3.57;;;15.00;76.80;;;;;;4819560;29;20290;-75
2022/05/24 09:45:27;;;;;;;6.30;3.27;;;14.80;77.60;;;;;;4829079;29;20371;-75
2022/05/24 09:47:59;;;;;;;5.07;3.00;;;14.50;79.40;;;;;;4856825;29;20892;-75
2022/05/24 09:50:33;;;;;;;8.03;3.37;;;14.30;81.40;;;;;;4813727;29;20371;-75
2022/05/24 09:53:16;;;;;;;4.43;2.50;;;14.20;82.60;;;;;;4815305;29;20418;-74
2022/05/24 09:55:47;;;;;;;5.83;2.30;;;14.20;84.00;;;;;;4862428;29;20393;-75
2022/05/24 09:58:25;;;;;;;7.63;3.50;;;14.40;83.80;;;;;;4827522;29;20294;-76
2022/05/24 10:00:57;;;;;;;6.73;3.03;;;14.60;82.40;;;;;;4823775;29;20312;-75
2022/05/24 10:03:29;;;;;;;7.03;3.10;;;14.70;81.50;;;;;;4836266;29;20284;-74
2022/05/24 10:06:26;;;;;;;10.10;4.73;;;14.70;82.00;;;;;;4825393;29;20298;-75
2022/05/24 10:09:17;;;;;;;25.20;6.83;;;14.50;80.20;;;;;;4819397;29;20288;-75
2022/05/24 10:11:54;;;;;;;6.33;3.80;;;14.30;80.10;;;;;;4826180;29;20778;-75
2022/05/24 10:14:43;;;;;;;12.13;4.07;;;14.30;80.70;;;;;;4837816;29;20312;-75
2022/05/24 10:17:32;;;;;;;6.20;3.03;;;14.40;81.40;;;;;;4835702;29;20294;-75
2022/05/24 10:20:24;;;;;;;13.73;4.40;;;14.70;82.90;;;;;;4838758;29;20291;-76
2022/05/24 10:23:12;;;;;;;4.83;3.03;;;15.20;79.40;;;;;;4837540;29;20292;-76
2022/05/24 10:26:00;;;;;;;5.33;3.50;;;15.50;79.00;;;;;;4827919;29;20763;-75
2022/05/24 10:28:28;;;;;;;7.30;3.00;;;15.40;77.90;;;;;;4814977;29;20826;-75
2022/05/24 10:31:22;;;;;;;4.40;2.57;;;15.20;78.00;;;;;;4838379;29;20660;-75
2022/05/24 10:40:33;;;;;;;3.23;0.83;;;14.00;81.30;;;;;;4853325;29;20380;-75
2022/05/24 10:43:17;;;;;;;3.47;0.73;;;13.80;82.10;;;;;;4861912;29;20305;-75
2022/05/24 10:45:55;;;;;;;2.50;0.70;;;13.70;83.60;;;;;;4837767;29;20326;-75
2022/05/24 10:48:34;;;;;;;3.00;0.93;;;13.80;83.40;;;;;;4855754;29;20292;-75
2022/05/24 10:51:23;;;;;;;3.17;1.33;;;13.90;83.50;;;;;;4840449;29;20723;-75
2022/05/24 10:53:55;;;;;;;8.53;1.83;;;14.30;83.20;;;;;;4851873;29;20283;-75
2022/05/24 10:56:46;;;;;;;5.17;0.93;;;14.50;78.70;;;;;;4807315;29;20285;-75
2022/05/24 10:59:24;;;;;;;2.60;0.77;;;14.60;78.40;;;;;;4832044;29;20363;-75
2022/05/24 11:01:57;;;;;;;2.03;1.00;;;14.60;79.60;;;;;;4830942;29;20645;-75
2022/05/24 11:04:38;;;;;;;3.43;0.93;;;14.70;79.10;;;;;;4824591;29;20327;-75
2022/05/24 11:07:11;;;;;;;2.23;0.60;;;14.80;79.90;;;;;;4824264;29;20703;-75
2022/05/24 11:09:53;;;;;;;4.97;0.80;;;15.00;76.70;;;;;;4809126;29;20291;-75
2022/05/24 11:12:24;;;;;;;5.77;1.27;;;15.10;76.20;;;;;;4823462;29;20294;-75
2022/05/24 11:14:56;;;;;;;5.57;1.00;;;15.30;77.60;;;;;;4819113;29;20315;-75
2022/05/24 11:17:22;;;;;;;6.40;1.77;;;15.40;77.50;;;;;;4817162;29;20291;-75
2022/05/24 11:19:51;;;;;;;5.43;1.07;;;15.30;76.60;;;;;;4842455;29;20299;-75
2022/05/24 11:22:36;;;;;;;5.97;1.17;;;15.30;77.90;;;;;;4811556;29;20379;-75
2022/05/24 11:25:13;;;;;;;2.40;1.10;;;15.60;76.10;;;;;;4860165;29;20373;-75
2022/05/24 11:28:01;;;;;;;4.93;0.90;;;15.70;75.10;;;;;;4828733;29;20132;-75
2022/05/24 11:30:30;;;;;;;5.07;1.47;;;15.60;74.60;;;;;;4799293;29;20349;-76
2022/05/24 11:33:05;;;;;;;2.10;0.60;;;15.20;73.50;;;;;;4835913;29;20296;-75
2022/05/24 11:35:50;;;;;;;2.33;0.45;;;15.00;73.30;;;;;;4830671;29;20842;-75
2022/05/24 11:38:17;;;;;;;;;;;15.10;74.40;;;;;;4832040;29;20163;-75
2022/05/24 11:41:02;;;;;;;3.63;0.90;;;15.20;70.90;;;;;;4834973;29;19924;-75
2022/05/24 11:43:56;;;;;;;5.07;1.10;;;15.20;72.90;;;;;;4826052;29;20288;-75
2022/05/24 11:46:34;;;;;;;5.57;1.77;;;15.20;72.20;;;;;;4819093;29;20333;-75
2022/05/24 11:49:04;;;;;;;6.60;1.30;;;14.90;72.50;;;;;;4846900;29;20338;-76
2022/05/24 11:51:44;;;;;;;3.40;1.27;;;14.70;72.80;;;;;;4811741;29;20295;-76
2022/05/24 11:54:17;;;;;;;5.20;1.20;;;14.50;71.40;;;;;;4823495;29;20311;-76
2022/05/24 11:57:07;;;;;;;5.30;1.00;;;14.50;74.10;;;;;;4805396;29;20296;-75
2022/05/24 11:59:48;;;;;;;5.33;1.27;;;14.90;75.10;;;;;;4844620;29;20782;-75
2022/05/24 12:02:27;;;;;;;2.50;0.80;;;15.20;70.90;;;;;;4837192;29;20309;-75
2022/05/24 12:07:55;;;;;;;4.13;0.67;;;15.10;68.80;;;;;;4849800;29;20786;-73
2022/05/24 12:10:20;;;;;;;8.97;2.10;;;15.00;68.70;;;;;;4839725;29;20788;-73
2022/05/24 12:12:53;;;;;;;4.97;0.77;;;14.80;67.60;;;;;;4830927;29;20306;-73
2022/05/24 12:15:26;;;;;;;3.60;0.70;;;14.80;69.70;;;;;;4839587;29;20057;-73
2022/05/24 12:18:16;;;;;;;5.07;1.13;;;14.80;70.40;;;;;;4849597;29;20291;-73
2022/05/24 12:20:42;;;;;;;4.33;0.77;;;15.00;71.30;;;;;;4810536;29;20287;-73
2022/05/24 12:23:09;;;;;;;4.03;1.00;;;15.10;70.00;;;;;;4838908;29;20295;-73
2022/05/24 12:26:15;;;;;;;5.73;0.70;;;15.00;71.80;;;;;;4829239;29;20793;-72
2022/05/24 12:28:50;;;;;;;3.70;0.73;;;15.10;71.70;;;;;;4802461;29;20363;-73
2022/05/24 12:31:29;;;;;;;3.33;0.70;;;15.20;72.50;;;;;;4808092;29;20125;-73
2022/05/24 12:33:55;;;;;;;4.57;1.83;;;15.40;72.60;;;;;;4814816;29;20291;-75
2022/05/24 12:36:43;;;;;;;6.20;1.00;;;15.70;72.30;;;;;;4818258;29;20291;-75
2022/05/24 12:39:18;;;;;;;4.27;1.83;;;15.90;71.10;;;;;;4850640;29;20125;-75
2022/05/24 12:41:43;;;;;;;4.88;1.35;;;15.90;70.90;;;;;;4830621;29;20788;-75
2022/05/24 12:44:21;;;;;;;6.40;1.60;;;15.90;70.10;;;;;;4832536;29;20049;-75
2022/05/24 12:47:05;;;;;;;9.03;2.27;;;15.80;71.50;;;;;;4814507;29;20848;-75
2022/05/24 12:49:36;;;;;;;3.87;1.70;;;15.80;70.50;;;;;;4819579;29;20295;-75
2022/05/24 12:52:11;;;;;;;5.60;2.70;;;15.90;69.00;;;;;;4845652;29;20295;-75
2022/05/24 12:54:42;;;;;;;4.97;1.60;;;16.10;68.30;;;;;;4832118;29;20399;-75
2022/05/24 12:57:23;;;;;;;5.47;2.63;;;16.10;67.40;;;;;;4817149;29;20294;-75
2022/05/24 13:00:01;;;;;;;4.90;1.80;;;16.10;67.00;;;;;;4829230;29;20649;-75
2022/05/24 13:02:28;;;;;;;7.67;2.40;;;16.00;66.10;;;;;;4835650;29;20283;-75
2022/05/24 13:05:08;;;;;;;4.40;1.87;;;15.70;66.80;;;;;;4838451;29;20288;-75
2022/05/24 13:07:58;;;;;;;5.70;2.60;;;15.60;67.40;;;;;;4831264;29;20329;-75
2022/05/24 13:10:30;;;;;;;8.03;2.33;;;16.00;68.90;;;;;;4844750;29;20318;-75
2022/05/24 13:13:06;;;;;;;6.33;2.20;;;16.30;68.80;;;;;;4828082;29;20307;-75
2022/05/24 13:15:37;;;;;;;4.07;1.80;;;16.30;67.30;;;;;;4807791;29;20894;-75
2022/05/24 13:18:08;;;;;;;5.87;2.10;;;16.50;66.30;;;;;;4855529;29;20709;-75
2022/05/24 13:20:40;;;;;;;5.50;2.80;;;16.50;66.40;;;;;;4848553;29;20283;-75
2022/05/24 13:23:14;;;;;;;5.77;2.43;;;16.50;66.10;;;;;;4825045;29;20302;-75
2022/05/24 13:25:47;;;;;;;5.32;2.80;;;16.60;68.00;;;;;;4808896;29;20654;-75
2022/05/24 13:28:30;;;;;;;7.03;2.67;;;16.60;66.30;;;;;;4832868;29;20094;-75
2022/05/24 13:33:46;;;;;;;7.40;3.60;;;16.70;67.20;;;;;;4860985;29;20307;-76
2022/05/24 13:36:24;;;;;;;4.93;2.73;;;16.70;68.10;;;;;;4831136;29;20363;-75
2022/05/24 13:39:12;;;;;;;6.30;3.33;;;16.60;65.70;;;;;;4807940;29;20623;-75
2022/05/24 13:41:56;;;;;;;7.00;3.23;;;16.40;66.00;;;;;;4861002;29;20299;-75
2022/05/24 13:44:35;;;;;;;6.10;3.50;;;16.10;66.10;;;;;;4863188;29;20374;-75
2022/05/24 13:47:04;;;;;;;5.77;3.10;;;16.10;68.00;;;;;;4828628;29;20803;-75